Woodhaven, Michigan
Current Conditions -  °F | °C
As of 7:14 AM on Monday 20 Oct 2014 (Local Time) from KONZ Reporting Station
Overcast Overcast  
Wind Chill: 44°   Ceiling: 8000
Heat Index: 48°   Visibility: 10mi
Dew Point: 45°   Wind: 9mph
Humidity: 87%   Direction: 190°S
Pressure: 29.87"   Gusts: NA
Location:  42.14°N, 83.24°W
Report Text: KONZ 201114Z AUTO 19008KT 10SM OVC080 09/07 A2987 RMK AO2
Loading
Personal Weather Stations






























Interactive Weather Map
Tropical Storm Tracking
New forecast layout! Learn more

10-Day Weather Forecast

Advertisements
Track Severe Weather on mobile